Time;durP1;ratioP1;P1;durP2;ratioP2;P2;SDS_P1;SDS_P2;PMS_P1;PMS_P2;Temp;Humidity;BMP_temperature;BMP_pressure;BME280_temperature;BME280_humidity;BME280_pressure;Samples;Min_cycle;Max_cycle;Signal;HPM_P1;HPM_P2
2021/12/21 07:59:40;;;;;;;28.95;14.98;;;;;;;-0.45;78.83;102564.69;5255094;27;1871577;-70
2021/12/21 08:02:12;;;;;;;23.23;14.43;;;;;;;-0.48;79.04;102575.94;5279645;28;20033;-70
2021/12/21 08:04:44;;;;;;;21.92;13.95;;;;;;;-0.51;78.74;102575.41;5280517;28;20104;-70
2021/12/21 08:07:19;;;;;;;22.90;14.82;;;;;;;-0.48;79.20;102565.03;5280021;28;20108;-70
2021/12/21 08:09:54;;;;;;;24.17;15.02;;;;;;;-0.48;79.26;102570.50;5289248;28;20371;-70
2021/12/21 08:12:25;;;;;;;29.98;16.10;;;;;;;-0.45;79.55;102572.88;5301099;28;20028;-70
2021/12/21 08:14:57;;;;;;;25.70;14.00;;;;;;;-0.48;79.29;102569.66;5301387;28;20036;-70
2021/12/21 08:17:28;;;;;;;24.45;13.32;;;;;;;-0.53;79.25;102572.03;5299986;28;20027;-70
2021/12/21 08:19:59;;;;;;;29.70;13.02;;;;;;;-0.22;78.42;102570.22;5301186;28;20032;-70
2021/12/21 08:22:30;;;;;;;24.85;14.23;;;;;;;-0.37;78.07;102565.69;5309774;28;20024;-70
2021/12/21 08:25:06;;;;;;;22.75;13.75;;;;;;;-0.24;78.41;102575.00;5319509;28;20031;-70
2021/12/21 08:27:37;;;;;;;;;;;;;;;-0.05;79.42;102573.75;5295891;28;20032;-70
2021/12/21 08:30:09;;;;;;;30.80;15.45;;;;;;;-0.23;78.89;102571.28;5278968;28;20352;-69
2021/12/21 08:32:40;;;;;;;29.58;15.88;;;;;;;-0.11;79.11;102569.00;5279844;28;20048;-70
2021/12/21 08:35:12;;;;;;;27.48;13.93;;;;;;;-0.16;78.81;102576.84;5279684;28;20029;-69
2021/12/21 08:37:51;;;;;;;27.05;16.55;;;;;;;-0.10;79.10;102567.97;5278716;28;20035;-69
2021/12/21 08:40:23;;;;;;;25.95;15.07;;;;;;;0.01;79.05;102574.91;5279556;28;20358;-70
2021/12/21 08:42:54;;;;;;;26.67;15.45;;;;;;;0.00;79.32;102573.22;5279841;28;20025;-69
2021/12/21 08:45:25;;;;;;;25.13;14.57;;;;;;;0.06;79.11;102568.94;5279453;28;20380;-70
2021/12/21 08:47:59;;;;;;;23.38;13.30;;;;;;;0.05;78.47;102567.22;5279196;28;20128;-71
2021/12/21 08:50:31;;;;;;;22.00;13.02;;;;;;;0.11;78.58;102574.72;5279205;28;20040;-71
2021/12/21 08:53:03;;;;;;;25.45;15.93;;;;;;;0.11;78.78;102571.97;5278449;28;20494;-71
2021/12/21 08:55:34;;;;;;;49.05;33.15;;;;;;;0.14;78.64;102579.81;5279331;28;20037;-69
2021/12/21 08:58:06;;;;;;;27.15;18.10;;;;;;;0.16;78.76;102566.84;5277133;28;20044;-69
2021/12/21 09:00:38;;;;;;;57.10;33.28;;;;;;;0.09;78.74;102571.31;5279958;28;20035;-69
2021/12/21 09:03:10;;;;;;;45.50;28.10;;;;;;;0.22;79.60;102572.41;5278645;28;20512;-69
2021/12/21 09:05:42;;;;;;;35.95;24.55;;;;;;;0.18;78.76;102575.69;5290346;28;20109;-70
2021/12/21 09:08:13;;;;;;;29.88;14.82;;;;;;;0.26;79.44;102583.00;5278399;28;20025;-70
2021/12/21 09:10:47;;;;;;;21.00;13.50;;;;;;;0.40;80.97;102585.78;5268349;28;20490;-72
2021/12/21 09:13:19;;;;;;;19.30;11.88;;;;;;;1.33;90.48;102585.75;5264221;28;20028;-72
2021/12/21 09:15:50;;;;;;;30.52;14.70;;;;;;;1.11;86.09;102584.78;5264705;28;20056;-70
2021/12/21 09:18:21;;;;;;;20.80;12.77;;;;;;;1.63;87.89;102581.19;5265747;28;20033;-72
2021/12/21 09:20:53;;;;;;;22.02;12.30;;;;;;;1.68;86.88;102576.84;5264044;28;20819;-70
2021/12/21 09:23:24;;;;;;;21.80;12.80;;;;;;;2.20;89.38;102582.34;5297459;28;20035;-71
2021/12/21 09:25:56;;;;;;;25.33;13.77;;;;;;;1.76;83.42;102577.78;5297507;28;20024;-75
2021/12/21 09:28:27;;;;;;;26.35;14.50;;;;;;;1.82;81.71;102580.63;5263848;28;20044;-76
2021/12/21 09:30:58;;;;;;;20.05;13.18;;;;;;;1.38;79.32;102586.03;5266553;28;20365;-74
2021/12/21 09:33:30;;;;;;;24.40;12.80;;;;;;;1.36;78.16;102588.13;5283241;28;20376;-73
2021/12/21 09:36:01;;;;;;;19.50;12.57;;;;;;;1.26;77.95;102588.41;5265545;28;20056;-75
2021/12/21 09:38:33;;;;;;;20.13;13.63;;;;;;;1.26;78.55;102575.56;5264779;28;20033;-75
2021/12/21 09:41:04;;;;;;;22.17;13.48;;;;;;;1.20;78.37;102576.31;5263893;28;20028;-73
2021/12/21 09:43:39;;;;;;;19.13;12.57;;;;;;;1.21;78.45;102582.63;5263420;28;20037;-73
2021/12/21 09:46:11;;;;;;;20.43;12.47;;;;;;;1.17;77.96;102581.28;5264478;28;20032;-73
2021/12/21 09:48:44;;;;;;;22.45;13.68;;;;;;;1.08;78.86;102584.09;5266945;28;20117;-72
2021/12/21 09:51:15;;;;;;;22.20;13.65;;;;;;;1.11;78.32;102580.16;5269233;28;20353;-74
2021/12/21 09:53:47;;;;;;;22.58;14.77;;;;;;;1.22;78.36;102581.59;5285193;28;20031;-73
2021/12/21 09:56:19;;;;;;;20.55;13.32;;;;;;;1.18;78.48;102580.28;5283223;28;20020;-73
2021/12/21 09:58:50;;;;;;;26.65;14.25;;;;;;;1.25;78.53;102575.75;5264536;28;20041;-74
2021/12/21 10:01:22;;;;;;;22.95;15.95;;;;;;;1.29;78.58;102577.94;5263652;28;20032;-73
2021/12/21 10:03:53;;;;;;;24.35;13.27;;;;;;;1.32;78.32;102571.25;5264009;28;20504;-74
2021/12/21 10:06:25;;;;;;;20.42;12.90;;;;;;;1.39;78.25;102574.94;5263691;28;20111;-71
2021/12/21 10:09:09;;;;;;;18.85;13.10;;;;;;;1.69;81.11;102564.88;5264583;28;20527;-75
2021/12/21 10:11:43;;;;;;;20.23;12.68;;;;;;;1.66;77.89;102559.78;5264125;28;20028;-75
2021/12/21 10:14:16;;;;;;;18.48;11.55;;;;;;;1.60;76.70;102559.69;5264430;28;20028;-76
2021/12/21 10:16:47;;;;;;;22.00;11.82;;;;;;;1.73;76.49;102565.34;5286051;28;20035;-72
2021/12/21 10:19:23;;;;;;;20.30;12.50;;;;;;;2.21;80.71;102564.91;5281390;28;20024;-68
2021/12/21 10:21:54;;;;;;;24.67;17.58;;;;;;;2.02;77.63;102571.81;5262034;28;20050;-72
2021/12/21 10:24:28;;;;;;;16.77;11.48;;;;;;;1.93;75.83;102571.09;5279694;28;20062;-72
2021/12/21 10:27:07;;;;;;;31.65;21.33;;;;;;;2.07;75.96;102556.53;5275552;28;20094;-72
2021/12/21 10:29:44;;;;;;;17.27;11.10;;;;;;;2.33;77.60;102553.28;5280620;28;20028;-72
2021/12/21 10:32:21;;;;;;;16.23;9.73;;;;;;;2.41;81.23;102548.72;5263327;28;20112;-75
2021/12/21 10:35:04;;;;;;;21.13;9.55;;;;;;;3.17;89.10;102551.75;5263059;28;20021;-69
2021/12/21 10:37:39;;;;;;;16.65;9.57;;;;;;;2.64;75.45;102549.38;5264970;28;20043;-73
2021/12/21 10:40:28;;;;;;;17.38;10.05;;;;;;;2.54;73.10;102546.97;5263750;28;20033;-73
2021/12/21 10:43:03;;;;;;;16.27;9.68;;;;;;;2.46;72.67;102549.00;5268746;28;20108;-74
2021/12/21 10:45:41;;;;;;;15.45;9.43;;;;;;;3.02;80.64;102544.47;5263310;28;20028;-74
2021/12/21 10:48:19;;;;;;;25.98;17.88;;;;;;;2.59;74.02;102544.47;5283490;28;20058;-74
2021/12/21 10:50:51;;;;;;;15.57;9.98;;;;;;;2.55;73.88;102545.06;5283254;28;20020;-73
2021/12/21 10:53:25;;;;;;;18.35;10.00;;;;;;;2.62;73.45;102540.50;5264960;28;20031;-73
2021/12/21 10:56:04;;;;;;;17.98;10.50;;;;;;;2.67;73.75;102540.75;5273716;28;20052;-73
2021/12/21 10:58:38;;;;;;;19.83;10.38;;;;;;;2.71;73.53;102538.47;5270043;28;20056;-73
2021/12/21 11:01:15;;;;;;;15.98;9.68;;;;;;;2.76;73.36;102528.66;5270913;28;20103;-72
2021/12/21 11:03:51;;;;;;;13.38;9.15;;;;;;;3.10;80.01;102538.00;5271621;28;20028;-76
2021/12/21 11:06:32;;;;;;;17.42;9.80;;;;;;;3.05;73.73;102535.84;5261196;28;20317;-74
2021/12/21 11:09:04;;;;;;;15.77;9.15;;;;;;;2.98;71.42;102532.19;5262239;28;20376;-74
2021/12/21 11:11:44;;;;;;;17.33;9.07;;;;;;;3.02;71.14;102538.16;5260142;28;20036;-72
2021/12/21 11:14:17;;;;;;;14.15;8.32;;;;;;;3.12;71.45;102535.03;5262136;28;20500;-74
2021/12/21 11:16:51;;;;;;;16.50;9.32;;;;;;;3.00;70.87;102529.25;5264840;28;20028;-74
2021/12/21 11:19:26;;;;;;;16.02;9.45;;;;;;;3.05;70.96;102535.84;5271710;28;20035;-72
2021/12/21 11:22:00;;;;;;;15.15;9.57;;;;;;;3.12;71.22;102532.28;5262564;28;20503;-72
2021/12/21 11:24:36;;;;;;;12.20;9.23;;;;;;;3.10;69.96;102527.03;5267183;28;20112;-74
2021/12/21 11:27:08;;;;;;;14.55;8.82;;;;;;;3.04;69.79;102520.44;5264806;28;20033;-73
2021/12/21 11:29:40;;;;;;;18.52;9.05;;;;;;;3.15;70.81;102520.94;5272508;28;20091;-73
2021/12/21 11:32:13;;;;;;;18.27;11.52;;;;;;;3.26;70.70;102518.50;5264538;28;20027;-73
2021/12/21 11:37:35;;;;;;;19.70;8.85;;;;;;;3.27;70.43;102500.13;5271322;28;20033;-73
2021/12/21 11:40:09;;;;;;;16.10;8.95;;;;;;;3.38;69.91;102482.28;5281879;28;20425;-72
2021/12/21 11:42:52;;;;;;;12.50;8.38;;;;;;;3.43;69.59;102474.31;5274846;28;20507;-74
2021/12/21 11:45:35;;;;;;;14.85;9.40;;;;;;;3.51;68.94;102471.41;5265361;28;20056;-73
2021/12/21 11:48:09;;;;;;;14.10;7.90;;;;;;;3.50;68.64;102477.91;5280475;28;20027;-73
2021/12/21 11:50:43;;;;;;;11.13;8.65;;;;;;;3.52;69.22;102483.22;5274492;28;20021;-74
2021/12/21 11:53:18;;;;;;;15.15;8.63;;;;;;;3.64;69.04;102479.69;5280870;28;20025;-74
2021/12/21 11:55:51;;;;;;;12.60;7.93;;;;;;;3.60;67.92;102481.13;5275297;28;20024;-73
2021/12/21 11:58:26;;;;;;;16.67;7.88;;;;;;;3.62;67.12;102472.72;5266263;28;20041;-74
2021/12/21 12:01:00;;;;;;;10.03;7.13;;;;;;;3.63;67.33;102479.88;5281786;28;20037;-74
2021/12/21 12:03:35;;;;;;;10.65;7.05;;;;;;;3.72;66.75;102484.16;5276209;28;20621;-74
2021/12/21 12:06:12;;;;;;;9.85;5.45;;;;;;;3.74;66.13;102476.56;5259499;28;20541;-73
2021/12/21 12:08:49;;;;;;;11.75;6.05;;;;;;;3.70;65.68;102469.78;5264877;28;20036;-73
2021/12/21 12:11:39;;;;;;;11.15;7.10;;;;;;;3.85;66.05;102475.13;5282101;28;20027;-73
2021/12/21 12:14:14;;;;;;;10.85;6.50;;;;;;;3.77;65.38;102465.19;5273019;28;20092;-75
2021/12/21 12:16:54;;;;;;;11.95;6.80;;;;;;;3.82;66.07;102461.81;5260823;28;20029;-74
2021/12/21 12:19:34;;;;;;;11.43;6.30;;;;;;;3.91;65.47;102455.94;5278274;28;20408;-74
2021/12/21 12:22:07;;;;;;;15.30;7.63;;;;;;;3.83;64.56;102456.09;5260996;28;20124;-73
2021/12/21 12:24:42;;;;;;;10.70;6.60;;;;;;;3.99;65.06;102452.19;5262937;28;20029;-75
2021/12/21 12:27:23;;;;;;;11.98;6.07;;;;;;;4.31;71.30;102453.28;5266388;28;20500;-73
2021/12/21 12:30:01;;;;;;;10.25;6.05;;;;;;;4.13;64.48;102469.53;5267134;28;20214;-74
2021/12/21 12:32:36;;;;;;;10.15;5.80;;;;;;;4.23;66.49;102469.97;5261813;28;20021;-72
2021/12/21 12:35:28;;;;;;;8.23;6.87;;;;;;;4.25;64.51;102462.38;5262232;28;20029;-73
2021/12/21 12:38:11;;;;;;;9.02;5.75;;;;;;;4.19;63.64;102457.69;5265506;28;20033;-73
2021/12/21 12:40:45;;;;;;;11.27;6.00;;;;;;;4.20;63.55;102450.31;5262625;28;20372;-73
2021/12/21 12:43:22;;;;;;;8.05;5.78;;;;;;;4.17;62.77;102446.09;5281111;28;20146;-74
2021/12/21 12:46:03;;;;;;;9.07;4.88;;;;;;;4.22;62.60;102440.81;5284890;28;20028;-73
2021/12/21 12:48:43;;;;;;;8.10;5.38;;;;;;;4.25;63.10;102445.91;5289448;28;20086;-71
2021/12/21 12:51:34;;;;;;;8.40;5.72;;;;;;;4.31;63.59;102434.06;5264375;28;20035;-72
2021/12/21 12:54:18;;;;;;;9.18;6.15;;;;;;;4.29;64.00;102425.19;5267038;28;20049;-73
2021/12/21 12:56:49;;;;;;;8.60;6.25;;;;;;;4.24;63.42;102421.38;5268380;28;20034;-73
2021/12/21 12:59:21;;;;;;;8.90;4.90;;;;;;;4.38;63.14;102427.75;5274227;28;20090;-74
2021/12/21 13:01:53;;;;;;;9.90;5.40;;;;;;;4.51;67.94;102422.25;5271782;28;20435;-71
2021/12/21 13:04:24;;;;;;;8.20;5.55;;;;;;;4.34;61.78;102417.16;5285208;28;20094;-70
2021/12/21 13:06:56;;;;;;;8.57;5.05;;;;;;;4.30;62.10;102415.91;5281368;28;20021;-70
2021/12/21 13:09:31;;;;;;;6.35;4.82;;;;;;;4.34;61.70;102406.16;5265139;28;20021;-73
2021/12/21 13:12:09;;;;;;;9.65;5.30;;;;;;;4.35;61.55;102401.53;5281647;28;20028;-73
2021/12/21 13:14:41;;;;;;;11.63;4.47;;;;;;;4.17;60.87;102404.91;5284172;28;20017;-73
2021/12/21 13:17:15;;;;;;;9.15;4.68;;;;;;;4.34;62.09;102408.06;5265112;28;20461;-73
2021/12/21 13:19:47;;;;;;;9.90;5.17;;;;;;;4.42;62.57;102405.13;5273668;28;20192;-76
2021/12/21 13:22:24;;;;;;;8.88;5.10;;;;;;;4.49;62.16;102419.72;5265165;28;20348;-75
2021/12/21 13:24:56;;;;;;;7.30;5.72;;;;;;;4.47;61.94;102410.81;5265011;28;20086;-75
2021/12/21 13:27:28;;;;;;;9.50;5.45;;;;;;;4.65;61.51;102412.94;5276020;28;20032;-73
2021/12/21 13:30:05;;;;;;;9.68;5.07;;;;;;;4.60;60.97;102409.97;5283132;28;20123;-74
2021/12/21 13:32:36;;;;;;;7.57;4.45;;;;;;;4.66;61.35;102411.06;5264937;28;20090;-74
2021/12/21 13:35:08;;;;;;;6.10;4.68;;;;;;;4.83;60.75;102408.69;5273707;28;20021;-72
2021/12/21 13:37:39;;;;;;;9.90;5.93;;;;;;;4.86;60.87;102414.63;5283470;28;20036;-70
2021/12/21 13:40:16;;;;;;;9.27;5.35;;;;;;;5.08;61.58;102417.97;5284550;28;20036;-69
2021/12/21 13:42:47;;;;;;;12.23;5.18;;;;;;;5.14;62.27;102428.13;5271569;28;20108;-72
2021/12/21 13:45:18;;;;;;;7.68;5.10;;;;;;;5.84;71.70;102413.69;5283054;28;20535;-73
2021/12/21 13:47:50;;;;;;;9.25;5.75;;;;;;;5.49;63.05;102427.81;5277674;28;20025;-77
2021/12/21 13:50:26;;;;;;;8.75;6.22;;;;;;;5.33;60.23;102425.53;5269588;28;20044;-73
2021/12/21 13:52:58;;;;;;;;;;;;;;;5.74;65.43;102419.66;5265176;28;20033;-71
2021/12/21 13:55:36;;;;;;;7.72;5.45;;;;;;;5.39;60.22;102413.66;5263382;28;20003;-71
2021/12/21 13:58:10;;;;;;;7.22;5.32;;;;;;;5.54;61.36;102405.97;5263611;28;20092;-74
2021/12/21 14:00:46;;;;;;;9.73;5.82;;;;;;;5.38;60.03;102410.06;5263141;28;20087;-75
2021/12/21 14:03:26;;;;;;;8.95;5.45;;;;;;;5.56;65.80;102403.84;5262574;28;20033;-71
2021/12/21 14:06:08;;;;;;;10.35;5.93;;;;;;;5.34;60.26;102413.47;5266292;28;20400;-72
2021/12/21 14:08:44;;;;;;;10.77;5.97;;;;;;;5.23;60.96;102407.56;5265015;28;20029;-74
2021/12/21 14:11:18;;;;;;;9.82;5.60;;;;;;;5.22;60.72;102414.13;5282489;28;20055;-73
2021/12/21 14:13:50;;;;;;;14.45;7.88;;;;;;;5.09;60.71;102416.06;5284606;28;20062;-72
2021/12/21 14:16:24;;;;;;;9.55;6.40;;;;;;;5.01;61.82;102419.88;5283675;28;20456;-72
2021/12/21 14:18:58;;;;;;;13.45;7.40;;;;;;;5.02;62.36;102421.59;5291224;28;20016;-72
2021/12/21 14:21:36;;;;;;;11.13;7.20;;;;;;;4.94;64.38;102413.56;5270396;28;20389;-73
2021/12/21 14:24:25;;;;;;;10.98;6.93;;;;;;;4.86;63.92;102420.13;5267534;28;20099;-72
2021/12/21 14:26:59;;;;;;;11.48;7.53;;;;;;;4.82;62.59;102418.03;5263014;28;20524;-71
2021/12/21 14:29:30;;;;;;;10.77;7.63;;;;;;;4.72;62.74;102416.53;5262314;28;20021;-72
2021/12/21 14:34:50;;;;;;;27.33;21.88;;;;;;;4.64;63.64;102419.50;5262261;28;20040;-71
2021/12/21 14:37:24;;;;;;;14.27;8.60;;;;;;;4.52;63.43;102418.44;5262101;28;20081;-70
2021/12/21 14:39:57;;;;;;;10.40;6.55;;;;;;;5.18;73.63;102415.63;5263124;28;20063;-69
2021/12/21 14:42:32;;;;;;;14.23;9.52;;;;;;;4.59;64.41;102419.28;5271286;28;20412;-71
2021/12/21 14:45:05;;;;;;;17.23;9.20;;;;;;;4.57;64.15;102422.25;5262950;28;20021;-71
2021/12/21 14:47:36;;;;;;;15.07;8.65;;;;;;;4.40;63.06;102422.88;5266582;28;20074;-71
2021/12/21 14:50:11;;;;;;;23.42;14.38;;;;;;;4.27;63.79;102421.81;5272740;28;20021;-72
2021/12/21 14:52:48;;;;;;;15.60;8.82;;;;;;;4.20;63.72;102420.97;5262711;28;20526;-70
2021/12/21 14:55:24;;;;;;;16.40;10.40;;;;;;;4.25;63.40;102423.91;5273993;28;20032;-72
2021/12/21 14:58:02;;;;;;;30.60;21.88;;;;;;;4.33;64.79;102426.47;5265066;28;20392;-71
2021/12/21 15:00:41;;;;;;;16.38;9.90;;;;;;;4.72;69.71;102427.53;5265692;28;20049;-67
2021/12/21 15:03:18;;;;;;;11.18;7.60;;;;;;;5.16;76.67;102431.47;5262705;28;20021;-68
2021/12/21 15:05:50;;;;;;;18.35;10.65;;;;;;;4.89;69.36;102433.44;5268512;28;20064;-71
2021/12/21 15:08:22;;;;;;;11.55;8.32;;;;;;;5.03;69.87;102436.19;5261525;28;20041;-69
2021/12/21 15:10:54;;;;;;;13.75;8.32;;;;;;;5.23;72.12;102435.06;5261928;28;20124;-68
2021/12/21 15:13:26;;;;;;;13.73;8.20;;;;;;;5.41;72.13;102441.81;5269036;28;20059;-71
2021/12/21 15:15:57;;;;;;;12.43;8.52;;;;;;;5.59;73.34;102432.84;5267054;28;20025;-69
2021/12/21 15:18:31;;;;;;;11.90;8.40;;;;;;;5.26;67.87;102433.78;5277569;28;20116;-71
2021/12/21 15:21:03;;;;;;;19.75;11.15;;;;;;;4.77;64.25;102441.47;5264394;28;20420;-68
2021/12/21 15:23:35;;;;;;;17.63;11.75;;;;;;;4.72;65.66;102441.28;5265318;28;20071;-65
2021/12/21 15:26:06;;;;;;;15.95;11.25;;;;;;;5.35;73.08;102442.69;5261585;28;20112;-70
2021/12/21 15:28:37;;;;;;;17.48;10.77;;;;;;;5.30;71.99;102437.81;5262027;28;20021;-66
2021/12/21 15:31:09;;;;;;;20.33;11.65;;;;;;;5.41;73.40;102437.13;5262819;28;20029;-70
2021/12/21 15:33:40;;;;;;;21.50;13.80;;;;;;;5.01;67.84;102439.13;5263576;28;20492;-70
2021/12/21 15:36:11;;;;;;;19.08;11.73;;;;;;;5.27;71.31;102437.41;5263064;28;20039;-66
2021/12/21 15:38:43;;;;;;;14.00;8.18;;;;;;;5.36;70.56;102436.94;5261148;28;20033;-66
2021/12/21 15:41:14;;;;;;;15.05;9.38;;;;;;;4.91;67.11;102439.59;5261217;28;20054;-67
2021/12/21 15:43:45;;;;;;;13.88;9.95;;;;;;;4.48;64.77;102439.16;5268402;28;20072;-68
2021/12/21 15:46:19;;;;;;;14.63;10.02;;;;;;;4.31;64.53;102439.56;5260770;28;20044;-71
2021/12/21 15:48:50;;;;;;;16.38;10.43;;;;;;;4.09;65.11;102438.03;5271503;28;20380;-70
2021/12/21 15:51:22;;;;;;;18.30;11.75;;;;;;;3.90;64.95;102440.50;5262473;28;20091;-71
2021/12/21 15:53:53;;;;;;;19.30;10.70;;;;;;;3.69;66.46;102441.50;5270236;28;20435;-71
2021/12/21 15:56:25;;;;;;;17.73;11.20;;;;;;;3.74;66.55;102443.63;5287783;28;20436;-71
2021/12/21 15:58:56;;;;;;;15.63;11.35;;;;;;;3.69;66.98;102440.66;5283038;28;20049;-70
2021/12/21 16:01:28;;;;;;;20.90;12.30;;;;;;;3.64;66.80;102432.19;5273626;28;20036;-70
2021/12/21 16:04:01;;;;;;;19.27;11.95;;;;;;;3.55;67.11;102428.75;5282763;28;20032;-72
2021/12/21 16:06:32;;;;;;;16.95;11.38;;;;;;;3.55;66.72;102436.16;5266204;28;20056;-70
2021/12/21 16:09:04;;;;;;;19.38;11.82;;;;;;;3.43;67.75;102427.69;5260815;28;20080;-71
2021/12/21 16:11:36;;;;;;;18.98;13.65;;;;;;;3.37;67.51;102420.25;5265161;28;20037;-70
2021/12/21 16:14:07;;;;;;;24.33;12.35;;;;;;;3.38;67.77;102417.31;5261080;28;20568;-70
2021/12/21 16:16:39;;;;;;;25.58;11.57;;;;;;;4.19;75.48;102424.75;5261525;28;20037;-72
2021/12/21 16:19:11;;;;;;;14.38;9.98;;;;;;;4.13;73.81;102428.34;5269813;28;20121;-70
2021/12/21 16:21:42;;;;;;;20.90;12.20;;;;;;;3.69;69.01;102419.56;5270622;28;20052;-68
2021/12/21 16:24:14;;;;;;;13.82;10.23;;;;;;;4.33;73.04;102420.13;5268548;28;20139;-68
2021/12/21 16:26:45;;;;;;;17.90;11.88;;;;;;;3.78;67.70;102419.38;5265760;28;20052;-68
2021/12/21 16:29:17;;;;;;;18.65;12.13;;;;;;;3.86;67.09;102427.41;5264668;28;20037;-67
2021/12/21 16:31:50;;;;;;;18.95;10.68;;;;;;;3.68;67.20;102428.84;5266733;28;20024;-67
2021/12/21 16:34:22;;;;;;;16.63;10.65;;;;;;;4.05;70.61;102429.38;5265402;28;20073;-69
2021/12/21 16:36:53;;;;;;;19.27;12.57;;;;;;;3.59;67.99;102435.56;5264515;28;20447;-67
2021/12/21 16:39:25;;;;;;;18.85;12.85;;;;;;;3.33;67.33;102441.75;5269258;28;20078;-67
2021/12/21 16:41:56;;;;;;;15.48;10.93;;;;;;;3.42;67.89;102440.53;5285932;28;20456;-67
2021/12/21 16:44:29;;;;;;;18.15;12.07;;;;;;;3.16;67.93;102441.22;5284921;28;20109;-67
2021/12/21 16:47:03;;;;;;;18.27;11.90;;;;;;;3.02;68.65;102440.31;5276488;28;20116;-68
2021/12/21 16:49:34;;;;;;;14.48;10.73;;;;;;;3.04;68.73;102445.56;5264679;28;20471;-70
2021/12/21 16:52:06;;;;;;;19.23;12.55;;;;;;;3.05;68.36;102447.28;5265177;28;20049;-67
2021/12/21 16:54:37;;;;;;;17.13;11.13;;;;;;;2.92;68.22;102450.78;5265227;28;20052;-67
2021/12/21 16:57:08;;;;;;;16.98;11.52;;;;;;;2.79;68.90;102453.41;5267155;28;20379;-67
2021/12/21 16:59:45;;;;;;;16.08;11.77;;;;;;;2.78;69.03;102458.03;5269994;28;20049;-69
2021/12/21 17:02:16;;;;;;;14.57;10.85;;;;;;;2.66;69.05;102456.03;5269572;28;20166;-70
2021/12/21 17:04:48;;;;;;;14.60;10.75;;;;;;;2.63;68.73;102450.94;5265093;28;20055;-70
2021/12/21 17:07:20;;;;;;;31.08;16.85;;;;;;;2.51;70.10;102458.88;5265786;28;20029;-70
2021/12/21 17:10:00;;;;;;;40.55;21.08;;;;;;;2.53;69.99;102474.06;5277053;28;20051;-70
2021/12/21 17:12:36;;;;;;;41.67;26.58;;;;;;;2.59;70.49;102476.00;5284954;28;20158;-72
2021/12/21 17:15:11;;;;;;;27.30;17.10;;;;;;;2.55;70.33;102477.44;5271152;28;20089;-72
2021/12/21 17:17:43;;;;;;;;;;;;;;;2.85;69.91;102476.44;5284987;28;20035;-72
2021/12/21 17:20:15;;;;;;;19.90;13.07;;;;;;;2.58;69.98;102477.06;5284776;28;19999;-74
2021/12/21 17:22:46;;;;;;;18.75;13.10;;;;;;;2.25;70.91;102481.34;5271520;28;20032;-74
2021/12/21 17:25:18;;;;;;;15.38;12.05;;;;;;;2.47;70.59;102477.56;5264220;28;20131;-73
2021/12/21 17:27:49;;;;;;;16.77;12.27;;;;;;;2.48;70.22;102473.81;5264634;28;20166;-73
2021/12/21 17:30:21;;;;;;;14.77;12.40;;;;;;;2.44;71.17;102471.66;5266798;28;20464;-72
